sensor_id;sensor_type;location;lat;lon;timestamp;P1;durP1;ratioP1;P2;durP2;ratioP2
2720;SDS011;1368;49.484;11.112;2024-03-02T00:00:51;73.97;;;41.33;;
2720;SDS011;1368;49.484;11.112;2024-03-02T00:03:17;70.93;;;40.23;;
2720;SDS011;1368;49.484;11.112;2024-03-02T00:05:43;71.53;;;41.80;;
2720;SDS011;1368;49.484;11.112;2024-03-02T00:08:13;69.40;;;41.40;;
2720;SDS011;1368;49.484;11.112;2024-03-02T00:10:47;84.03;;;44.27;;
2720;SDS011;1368;49.484;11.112;2024-03-02T00:13:13;74.07;;;42.43;;
2720;SDS011;1368;49.484;11.112;2024-03-02T00:15:40;69.93;;;40.43;;
2720;SDS011;1368;49.484;11.112;2024-03-02T00:18:33;68.50;;;39.83;;
2720;SDS011;1368;49.484;11.112;2024-03-02T00:21:00;72.90;;;42.07;;
2720;SDS011;1368;49.484;11.112;2024-03-02T00:23:29;76.33;;;42.40;;
2720;SDS011;1368;49.484;11.112;2024-03-02T00:25:58;69.47;;;41.60;;
2720;SDS011;1368;49.484;11.112;2024-03-02T00:30:55;76.03;;;41.30;;
2720;SDS011;1368;49.484;11.112;2024-03-02T00:33:27;74.13;;;42.20;;
2720;SDS011;1368;49.484;11.112;2024-03-02T00:36:05;76.77;;;42.07;;
2720;SDS011;1368;49.484;11.112;2024-03-02T00:38:32;68.37;;;39.57;;
2720;SDS011;1368;49.484;11.112;2024-03-02T00:41:07;67.80;;;39.93;;
2720;SDS011;1368;49.484;11.112;2024-03-02T00:43:44;74.93;;;42.27;;
2720;SDS011;1368;49.484;11.112;2024-03-02T00:46:13;74.20;;;43.23;;
2720;SDS011;1368;49.484;11.112;2024-03-02T00:48:53;76.73;;;40.63;;
2720;SDS011;1368;49.484;11.112;2024-03-02T00:51:23;67.73;;;38.53;;
2720;SDS011;1368;49.484;11.112;2024-03-02T00:53:53;72.83;;;43.50;;
2720;SDS011;1368;49.484;11.112;2024-03-02T00:56:22;74.53;;;41.80;;
2720;SDS011;1368;49.484;11.112;2024-03-02T00:58:48;75.83;;;41.47;;
2720;SDS011;1368;49.484;11.112;2024-03-02T01:01:14;64.73;;;40.43;;
2720;SDS011;1368;49.484;11.112;2024-03-02T01:03:41;78.53;;;43.80;;
2720;SDS011;1368;49.484;11.112;2024-03-02T01:06:07;71.63;;;41.57;;
2720;SDS011;1368;49.484;11.112;2024-03-02T01:08:35;67.17;;;38.03;;
2720;SDS011;1368;49.484;11.112;2024-03-02T01:11:02;75.83;;;41.57;;
2720;SDS011;1368;49.484;11.112;2024-03-02T01:13:28;65.03;;;39.33;;
2720;SDS011;1368;49.484;11.112;2024-03-02T01:15:54;69.03;;;38.83;;
2720;SDS011;1368;49.484;11.112;2024-03-02T01:18:20;70.67;;;41.80;;
2720;SDS011;1368;49.484;11.112;2024-03-02T01:20:47;66.83;;;39.33;;
2720;SDS011;1368;49.484;11.112;2024-03-02T01:23:13;70.70;;;40.23;;
2720;SDS011;1368;49.484;11.112;2024-03-02T01:25:39;70.67;;;42.10;;
2720;SDS011;1368;49.484;11.112;2024-03-02T01:28:05;74.53;;;42.30;;
2720;SDS011;1368;49.484;11.112;2024-03-02T01:30:30;69.73;;;40.57;;
2720;SDS011;1368;49.484;11.112;2024-03-02T01:32:56;83.57;;;45.70;;
2720;SDS011;1368;49.484;11.112;2024-03-02T01:35:23;78.10;;;43.10;;
2720;SDS011;1368;49.484;11.112;2024-03-02T01:37:49;75.97;;;40.17;;
2720;SDS011;1368;49.484;11.112;2024-03-02T01:40:15;68.53;;;41.10;;
2720;SDS011;1368;49.484;11.112;2024-03-02T01:42:40;84.70;;;44.57;;
2720;SDS011;1368;49.484;11.112;2024-03-02T01:45:06;79.23;;;44.43;;
2720;SDS011;1368;49.484;11.112;2024-03-02T01:47:33;83.50;;;45.00;;
2720;SDS011;1368;49.484;11.112;2024-03-02T01:49:59;96.83;;;49.27;;
2720;SDS011;1368;49.484;11.112;2024-03-02T01:52:25;82.80;;;45.27;;
2720;SDS011;1368;49.484;11.112;2024-03-02T01:54:51;81.03;;;47.37;;
2720;SDS011;1368;49.484;11.112;2024-03-02T01:57:17;86.43;;;46.20;;
2720;SDS011;1368;49.484;11.112;2024-03-02T01:59:43;73.70;;;43.90;;
2720;SDS011;1368;49.484;11.112;2024-03-02T02:02:09;94.83;;;50.60;;
2720;SDS011;1368;49.484;11.112;2024-03-02T02:04:34;85.70;;;46.23;;
2720;SDS011;1368;49.484;11.112;2024-03-02T02:07:00;88.03;;;49.00;;
2720;SDS011;1368;49.484;11.112;2024-03-02T02:09:26;86.60;;;47.60;;
2720;SDS011;1368;49.484;11.112;2024-03-02T02:11:51;95.47;;;53.60;;
2720;SDS011;1368;49.484;11.112;2024-03-02T02:14:17;100.43;;;53.40;;
2720;SDS011;1368;49.484;11.112;2024-03-02T02:16:43;76.13;;;43.17;;
2720;SDS011;1368;49.484;11.112;2024-03-02T02:19:09;89.93;;;48.43;;
2720;SDS011;1368;49.484;11.112;2024-03-02T02:21:35;69.43;;;40.20;;
2720;SDS011;1368;49.484;11.112;2024-03-02T02:24:01;79.87;;;43.50;;
2720;SDS011;1368;49.484;11.112;2024-03-02T02:26:28;72.03;;;41.33;;
2720;SDS011;1368;49.484;11.112;2024-03-02T02:28:54;77.00;;;41.60;;
2720;SDS011;1368;49.484;11.112;2024-03-02T02:31:19;78.30;;;42.80;;
2720;SDS011;1368;49.484;11.112;2024-03-02T02:33:45;79.77;;;45.17;;
2720;SDS011;1368;49.484;11.112;2024-03-02T02:36:10;84.30;;;46.70;;
2720;SDS011;1368;49.484;11.112;2024-03-02T02:38:38;78.53;;;45.23;;
2720;SDS011;1368;49.484;11.112;2024-03-02T02:41:07;85.03;;;45.90;;
2720;SDS011;1368;49.484;11.112;2024-03-02T02:43:33;83.37;;;44.40;;
2720;SDS011;1368;49.484;11.112;2024-03-02T02:45:59;81.77;;;44.37;;
2720;SDS011;1368;49.484;11.112;2024-03-02T02:48:24;72.70;;;43.20;;
2720;SDS011;1368;49.484;11.112;2024-03-02T02:50:50;79.20;;;42.70;;
2720;SDS011;1368;49.484;11.112;2024-03-02T02:53:16;93.03;;;45.20;;
2720;SDS011;1368;49.484;11.112;2024-03-02T02:55:41;70.10;;;40.50;;
2720;SDS011;1368;49.484;11.112;2024-03-02T02:58:08;73.13;;;42.47;;
2720;SDS011;1368;49.484;11.112;2024-03-02T03:00:34;73.70;;;42.40;;
2720;SDS011;1368;49.484;11.112;2024-03-02T03:03:01;76.93;;;40.97;;
2720;SDS011;1368;49.484;11.112;2024-03-02T03:05:27;77.70;;;42.40;;
2720;SDS011;1368;49.484;11.112;2024-03-02T03:07:52;77.90;;;43.63;;
2720;SDS011;1368;49.484;11.112;2024-03-02T03:10:18;73.70;;;43.97;;
2720;SDS011;1368;49.484;11.112;2024-03-02T03:12:46;69.97;;;39.47;;
2720;SDS011;1368;49.484;11.112;2024-03-02T03:15:12;67.83;;;40.87;;
2720;SDS011;1368;49.484;11.112;2024-03-02T03:17:38;79.90;;;42.67;;
2720;SDS011;1368;49.484;11.112;2024-03-02T03:20:03;73.90;;;41.20;;
2720;SDS011;1368;49.484;11.112;2024-03-02T03:22:30;75.33;;;44.10;;
2720;SDS011;1368;49.484;11.112;2024-03-02T03:24:56;66.53;;;40.20;;
2720;SDS011;1368;49.484;11.112;2024-03-02T03:27:22;74.97;;;43.77;;
2720;SDS011;1368;49.484;11.112;2024-03-02T03:29:48;72.73;;;42.40;;
2720;SDS011;1368;49.484;11.112;2024-03-02T03:32:13;77.67;;;42.47;;
2720;SDS011;1368;49.484;11.112;2024-03-02T03:34:39;73.87;;;43.03;;
2720;SDS011;1368;49.484;11.112;2024-03-02T03:37:05;65.30;;;41.67;;
2720;SDS011;1368;49.484;11.112;2024-03-02T03:39:31;71.77;;;42.20;;
2720;SDS011;1368;49.484;11.112;2024-03-02T03:41:58;61.67;;;39.83;;
2720;SDS011;1368;49.484;11.112;2024-03-02T03:44:24;63.07;;;38.43;;
2720;SDS011;1368;49.484;11.112;2024-03-02T03:46:49;64.83;;;38.00;;
2720;SDS011;1368;49.484;11.112;2024-03-02T03:49:15;63.73;;;38.13;;
2720;SDS011;1368;49.484;11.112;2024-03-02T03:51:41;67.23;;;38.13;;
2720;SDS011;1368;49.484;11.112;2024-03-02T03:54:06;60.67;;;36.70;;
2720;SDS011;1368;49.484;11.112;2024-03-02T03:56:32;63.37;;;38.97;;
2720;SDS011;1368;49.484;11.112;2024-03-02T03:58:57;69.03;;;39.87;;
2720;SDS011;1368;49.484;11.112;2024-03-02T04:01:24;71.00;;;40.57;;
2720;SDS011;1368;49.484;11.112;2024-03-02T04:03:50;68.50;;;40.37;;
2720;SDS011;1368;49.484;11.112;2024-03-02T04:06:15;64.80;;;40.40;;
2720;SDS011;1368;49.484;11.112;2024-03-02T04:08:42;57.73;;;36.83;;
2720;SDS011;1368;49.484;11.112;2024-03-02T04:11:09;61.87;;;36.10;;
2720;SDS011;1368;49.484;11.112;2024-03-02T04:13:35;60.80;;;36.00;;
2720;SDS011;1368;49.484;11.112;2024-03-02T04:16:00;60.40;;;35.90;;
2720;SDS011;1368;49.484;11.112;2024-03-02T04:18:26;56.13;;;34.67;;
2720;SDS011;1368;49.484;11.112;2024-03-02T04:20:51;56.73;;;34.60;;
2720;SDS011;1368;49.484;11.112;2024-03-02T04:23:17;52.03;;;32.23;;
2720;SDS011;1368;49.484;11.112;2024-03-02T04:25:43;62.87;;;35.80;;
2720;SDS011;1368;49.484;11.112;2024-03-02T04:28:08;58.83;;;35.07;;
2720;SDS011;1368;49.484;11.112;2024-03-02T04:30:34;56.17;;;34.03;;
2720;SDS011;1368;49.484;11.112;2024-03-02T04:32:59;53.10;;;32.40;;
2720;SDS011;1368;49.484;11.112;2024-03-02T04:35:26;60.67;;;32.50;;
2720;SDS011;1368;49.484;11.112;2024-03-02T04:37:51;54.70;;;34.00;;
2720;SDS011;1368;49.484;11.112;2024-03-02T04:40:17;56.90;;;35.43;;
2720;SDS011;1368;49.484;11.112;2024-03-02T04:42:42;63.83;;;34.60;;
2720;SDS011;1368;49.484;11.112;2024-03-02T04:45:08;60.47;;;35.20;;
2720;SDS011;1368;49.484;11.112;2024-03-02T04:47:34;60.37;;;34.97;;
2720;SDS011;1368;49.484;11.112;2024-03-02T04:49:59;71.17;;;39.13;;
2720;SDS011;1368;49.484;11.112;2024-03-02T04:52:25;60.20;;;35.67;;
2720;SDS011;1368;49.484;11.112;2024-03-02T04:54:50;63.83;;;37.27;;
2720;SDS011;1368;49.484;11.112;2024-03-02T04:57:35;67.37;;;36.83;;
2720;SDS011;1368;49.484;11.112;2024-03-02T05:00:00;59.73;;;35.97;;
2720;SDS011;1368;49.484;11.112;2024-03-02T05:02:26;56.27;;;35.50;;
2720;SDS011;1368;49.484;11.112;2024-03-02T05:04:51;57.27;;;34.53;;
2720;SDS011;1368;49.484;11.112;2024-03-02T05:07:17;61.60;;;37.57;;
2720;SDS011;1368;49.484;11.112;2024-03-02T05:09:42;65.00;;;35.40;;
2720;SDS011;1368;49.484;11.112;2024-03-02T05:12:08;58.90;;;34.03;;
2720;SDS011;1368;49.484;11.112;2024-03-02T05:14:48;60.23;;;35.10;;
2720;SDS011;1368;49.484;11.112;2024-03-02T05:17:13;64.63;;;34.57;;
2720;SDS011;1368;49.484;11.112;2024-03-02T05:19:39;56.80;;;32.80;;
2720;SDS011;1368;49.484;11.112;2024-03-02T05:22:04;61.67;;;34.50;;
2720;SDS011;1368;49.484;11.112;2024-03-02T05:24:30;60.17;;;34.10;;
2720;SDS011;1368;49.484;11.112;2024-03-02T05:26:56;60.77;;;35.80;;
2720;SDS011;1368;49.484;11.112;2024-03-02T05:29:21;68.00;;;34.87;;
2720;SDS011;1368;49.484;11.112;2024-03-02T05:31:47;62.80;;;34.50;;
2720;SDS011;1368;49.484;11.112;2024-03-02T05:34:13;75.43;;;37.17;;
2720;SDS011;1368;49.484;11.112;2024-03-02T05:36:39;66.37;;;37.70;;
2720;SDS011;1368;49.484;11.112;2024-03-02T05:39:05;75.10;;;41.13;;
2720;SDS011;1368;49.484;11.112;2024-03-02T05:41:34;72.30;;;39.50;;
2720;SDS011;1368;49.484;11.112;2024-03-02T05:43:59;72.60;;;40.87;;
2720;SDS011;1368;49.484;11.112;2024-03-02T05:46:25;73.23;;;40.57;;
2720;SDS011;1368;49.484;11.112;2024-03-02T05:48:50;71.80;;;38.00;;
2720;SDS011;1368;49.484;11.112;2024-03-02T05:51:16;75.73;;;37.23;;
2720;SDS011;1368;49.484;11.112;2024-03-02T05:53:42;66.93;;;37.70;;
2720;SDS011;1368;49.484;11.112;2024-03-02T05:56:07;77.47;;;38.53;;
2720;SDS011;1368;49.484;11.112;2024-03-02T05:58:33;71.87;;;38.20;;
2720;SDS011;1368;49.484;11.112;2024-03-02T06:01:18;65.40;;;35.60;;
2720;SDS011;1368;49.484;11.112;2024-03-02T06:03:43;68.33;;;37.67;;
2720;SDS011;1368;49.484;11.112;2024-03-02T06:06:09;77.53;;;39.30;;
2720;SDS011;1368;49.484;11.112;2024-03-02T06:08:35;83.40;;;41.17;;
2720;SDS011;1368;49.484;11.112;2024-03-02T06:11:00;68.67;;;36.70;;
2720;SDS011;1368;49.484;11.112;2024-03-02T06:13:26;69.53;;;37.77;;
2720;SDS011;1368;49.484;11.112;2024-03-02T06:15:52;67.10;;;36.60;;
2720;SDS011;1368;49.484;11.112;2024-03-02T06:18:17;68.10;;;38.50;;
2720;SDS011;1368;49.484;11.112;2024-03-02T06:20:43;70.47;;;37.87;;
2720;SDS011;1368;49.484;11.112;2024-03-02T06:23:09;71.60;;;35.93;;
2720;SDS011;1368;49.484;11.112;2024-03-02T06:25:34;63.37;;;35.30;;
2720;SDS011;1368;49.484;11.112;2024-03-02T06:28:00;65.03;;;36.17;;
2720;SDS011;1368;49.484;11.112;2024-03-02T06:30:25;67.27;;;36.83;;
2720;SDS011;1368;49.484;11.112;2024-03-02T06:32:51;71.27;;;38.03;;
2720;SDS011;1368;49.484;11.112;2024-03-02T06:35:16;66.70;;;34.50;;
2720;SDS011;1368;49.484;11.112;2024-03-02T06:37:42;56.87;;;33.17;;
2720;SDS011;1368;49.484;11.112;2024-03-02T06:40:08;63.27;;;34.60;;
2720;SDS011;1368;49.484;11.112;2024-03-02T06:42:34;67.00;;;35.33;;
2720;SDS011;1368;49.484;11.112;2024-03-02T06:45:00;67.07;;;37.67;;
2720;SDS011;1368;49.484;11.112;2024-03-02T06:47:26;71.40;;;36.37;;
2720;SDS011;1368;49.484;11.112;2024-03-02T06:49:52;74.50;;;37.30;;
2720;SDS011;1368;49.484;11.112;2024-03-02T06:52:18;62.50;;;35.40;;
2720;SDS011;1368;49.484;11.112;2024-03-02T06:54:43;64.07;;;35.40;;
2720;SDS011;1368;49.484;11.112;2024-03-02T06:57:09;59.93;;;34.93;;
2720;SDS011;1368;49.484;11.112;2024-03-02T06:59:35;62.87;;;35.10;;
2720;SDS011;1368;49.484;11.112;2024-03-02T07:02:00;67.10;;;37.03;;
2720;SDS011;1368;49.484;11.112;2024-03-02T07:04:26;75.07;;;38.37;;
2720;SDS011;1368;49.484;11.112;2024-03-02T07:06:52;62.47;;;35.80;;
2720;SDS011;1368;49.484;11.112;2024-03-02T07:09:17;61.60;;;34.80;;
2720;SDS011;1368;49.484;11.112;2024-03-02T07:11:47;57.27;;;33.37;;
2720;SDS011;1368;49.484;11.112;2024-03-02T07:14:13;56.67;;;31.00;;
2720;SDS011;1368;49.484;11.112;2024-03-02T07:16:38;55.50;;;35.10;;
2720;SDS011;1368;49.484;11.112;2024-03-02T07:19:05;60.83;;;33.40;;
2720;SDS011;1368;49.484;11.112;2024-03-02T07:21:31;54.30;;;33.43;;
2720;SDS011;1368;49.484;11.112;2024-03-02T07:23:58;49.60;;;31.07;;
2720;SDS011;1368;49.484;11.112;2024-03-02T07:26:24;53.47;;;31.50;;
2720;SDS011;1368;49.484;11.112;2024-03-02T07:28:50;39.60;;;26.90;;
2720;SDS011;1368;49.484;11.112;2024-03-02T07:31:16;42.30;;;26.83;;
2720;SDS011;1368;49.484;11.112;2024-03-02T07:33:43;35.13;;;25.67;;
2720;SDS011;1368;49.484;11.112;2024-03-02T07:36:10;36.33;;;25.33;;
2720;SDS011;1368;49.484;11.112;2024-03-02T07:38:36;32.23;;;24.40;;
2720;SDS011;1368;49.484;11.112;2024-03-02T07:41:02;35.47;;;24.00;;
2720;SDS011;1368;49.484;11.112;2024-03-02T07:43:29;32.07;;;24.63;;
2720;SDS011;1368;49.484;11.112;2024-03-02T07:45:56;30.27;;;22.80;;
2720;SDS011;1368;49.484;11.112;2024-03-02T07:48:22;32.53;;;24.27;;
2720;SDS011;1368;49.484;11.112;2024-03-02T07:50:47;34.60;;;22.60;;
2720;SDS011;1368;49.484;11.112;2024-03-02T07:53:13;36.30;;;23.73;;
2720;SDS011;1368;49.484;11.112;2024-03-02T07:55:39;37.30;;;23.87;;
2720;SDS011;1368;49.484;11.112;2024-03-02T07:58:05;50.50;;;25.37;;
2720;SDS011;1368;49.484;11.112;2024-03-02T08:00:31;35.27;;;23.13;;
2720;SDS011;1368;49.484;11.112;2024-03-02T08:02:57;33.30;;;22.93;;
2720;SDS011;1368;49.484;11.112;2024-03-02T08:05:23;32.67;;;22.90;;
2720;SDS011;1368;49.484;11.112;2024-03-02T08:07:48;36.77;;;24.70;;
2720;SDS011;1368;49.484;11.112;2024-03-02T08:10:17;35.17;;;22.60;;
2720;SDS011;1368;49.484;11.112;2024-03-02T08:12:43;33.20;;;23.50;;
2720;SDS011;1368;49.484;11.112;2024-03-02T08:15:09;35.90;;;24.20;;
2720;SDS011;1368;49.484;11.112;2024-03-02T08:17:34;35.70;;;23.13;;
2720;SDS011;1368;49.484;11.112;2024-03-02T08:20:00;37.00;;;21.30;;
2720;SDS011;1368;49.484;11.112;2024-03-02T08:22:26;33.73;;;23.23;;
2720;SDS011;1368;49.484;11.112;2024-03-02T08:24:51;32.50;;;22.00;;
2720;SDS011;1368;49.484;11.112;2024-03-02T08:27:17;30.40;;;21.90;;
2720;SDS011;1368;49.484;11.112;2024-03-02T08:29:43;29.97;;;21.00;;
2720;SDS011;1368;49.484;11.112;2024-03-02T08:32:08;31.30;;;20.47;;
2720;SDS011;1368;49.484;11.112;2024-03-02T08:34:34;33.10;;;21.73;;
2720;SDS011;1368;49.484;11.112;2024-03-02T08:37:00;30.77;;;20.23;;
2720;SDS011;1368;49.484;11.112;2024-03-02T08:39:29;36.33;;;22.60;;
2720;SDS011;1368;49.484;11.112;2024-03-02T08:41:55;29.13;;;20.60;;
2720;SDS011;1368;49.484;11.112;2024-03-02T08:44:20;29.53;;;20.27;;
2720;SDS011;1368;49.484;11.112;2024-03-02T08:46:46;24.10;;;18.70;;
2720;SDS011;1368;49.484;11.112;2024-03-02T08:49:12;25.70;;;19.40;;
2720;SDS011;1368;49.484;11.112;2024-03-02T08:51:38;26.10;;;18.53;;
2720;SDS011;1368;49.484;11.112;2024-03-02T08:54:03;23.20;;;17.37;;
2720;SDS011;1368;49.484;11.112;2024-03-02T08:56:30;24.90;;;18.07;;
2720;SDS011;1368;49.484;11.112;2024-03-02T08:58:56;22.33;;;17.00;;
2720;SDS011;1368;49.484;11.112;2024-03-02T09:01:22;22.27;;;17.60;;
2720;SDS011;1368;49.484;11.112;2024-03-02T09:03:48;24.00;;;17.63;;
2720;SDS011;1368;49.484;11.112;2024-03-02T09:06:16;24.53;;;17.13;;
2720;SDS011;1368;49.484;11.112;2024-03-02T09:08:42;20.60;;;16.23;;
2720;SDS011;1368;49.484;11.112;2024-03-02T09:11:08;23.03;;;17.20;;
2720;SDS011;1368;49.484;11.112;2024-03-02T09:13:35;24.30;;;17.97;;
2720;SDS011;1368;49.484;11.112;2024-03-02T09:16:02;24.03;;;17.30;;
2720;SDS011;1368;49.484;11.112;2024-03-02T09:18:29;22.17;;;16.43;;
2720;SDS011;1368;49.484;11.112;2024-03-02T09:20:54;21.87;;;15.70;;
2720;SDS011;1368;49.484;11.112;2024-03-02T09:23:20;24.20;;;16.27;;
2720;SDS011;1368;49.484;11.112;2024-03-02T09:25:46;19.83;;;15.03;;
2720;SDS011;1368;49.484;11.112;2024-03-02T09:28:12;19.13;;;15.50;;
2720;SDS011;1368;49.484;11.112;2024-03-02T09:30:37;19.00;;;14.90;;
2720;SDS011;1368;49.484;11.112;2024-03-02T09:33:03;23.00;;;17.07;;
2720;SDS011;1368;49.484;11.112;2024-03-02T09:35:29;18.67;;;14.17;;
2720;SDS011;1368;49.484;11.112;2024-03-02T09:37:55;23.17;;;16.23;;
2720;SDS011;1368;49.484;11.112;2024-03-02T09:40:21;20.40;;;15.20;;
2720;SDS011;1368;49.484;11.112;2024-03-02T09:42:47;18.53;;;14.57;;
2720;SDS011;1368;49.484;11.112;2024-03-02T09:45:18;18.60;;;14.20;;
2720;SDS011;1368;49.484;11.112;2024-03-02T09:47:49;18.00;;;14.37;;
2720;SDS011;1368;49.484;11.112;2024-03-02T09:50:15;20.60;;;16.03;;
2720;SDS011;1368;49.484;11.112;2024-03-02T09:52:43;23.83;;;14.83;;
2720;SDS011;1368;49.484;11.112;2024-03-02T09:55:12;18.47;;;14.20;;
2720;SDS011;1368;49.484;11.112;2024-03-02T09:57:40;22.67;;;15.83;;
2720;SDS011;1368;49.484;11.112;2024-03-02T10:00:07;19.37;;;15.97;;
2720;SDS011;1368;49.484;11.112;2024-03-02T10:02:33;18.77;;;13.90;;
2720;SDS011;1368;49.484;11.112;2024-03-02T10:04:59;17.13;;;14.00;;
2720;SDS011;1368;49.484;11.112;2024-03-02T10:07:24;17.37;;;14.40;;
2720;SDS011;1368;49.484;11.112;2024-03-02T10:09:50;19.90;;;14.00;;
2720;SDS011;1368;49.484;11.112;2024-03-02T10:12:17;17.63;;;13.40;;
2720;SDS011;1368;49.484;11.112;2024-03-02T10:14:43;19.63;;;14.03;;
2720;SDS011;1368;49.484;11.112;2024-03-02T10:17:12;20.67;;;13.50;;
2720;SDS011;1368;49.484;11.112;2024-03-02T10:19:39;19.20;;;13.90;;
2720;SDS011;1368;49.484;11.112;2024-03-02T10:22:05;17.20;;;12.63;;
2720;SDS011;1368;49.484;11.112;2024-03-02T10:24:36;17.50;;;14.30;;
2720;SDS011;1368;49.484;11.112;2024-03-02T10:27:08;18.27;;;13.40;;
2720;SDS011;1368;49.484;11.112;2024-03-02T10:29:39;16.83;;;14.00;;
2720;SDS011;1368;49.484;11.112;2024-03-02T10:32:05;17.07;;;13.43;;
2720;SDS011;1368;49.484;11.112;2024-03-02T10:34:34;20.37;;;15.20;;
2720;SDS011;1368;49.484;11.112;2024-03-02T10:37:01;20.77;;;16.47;;
2720;SDS011;1368;49.484;11.112;2024-03-02T10:39:26;18.17;;;14.93;;
2720;SDS011;1368;49.484;11.112;2024-03-02T10:41:53;22.87;;;17.30;;
2720;SDS011;1368;49.484;11.112;2024-03-02T10:44:21;21.50;;;16.93;;
2720;SDS011;1368;49.484;11.112;2024-03-02T10:46:47;23.20;;;17.17;;
2720;SDS011;1368;49.484;11.112;2024-03-02T10:49:15;19.63;;;15.10;;
2720;SDS011;1368;49.484;11.112;2024-03-02T10:51:42;20.13;;;16.57;;
2720;SDS011;1368;49.484;11.112;2024-03-02T10:54:07;21.63;;;16.10;;
2720;SDS011;1368;49.484;11.112;2024-03-02T10:56:34;21.93;;;17.80;;
2720;SDS011;1368;49.484;11.112;2024-03-02T10:59:06;20.13;;;15.93;;
2720;SDS011;1368;49.484;11.112;2024-03-02T11:01:57;18.93;;;16.40;;
2720;SDS011;1368;49.484;11.112;2024-03-02T11:04:26;20.00;;;15.70;;
2720;SDS011;1368;49.484;11.112;2024-03-02T11:06:58;19.93;;;14.53;;
2720;SDS011;1368;49.484;11.112;2024-03-02T11:09:26;25.07;;;16.20;;
2720;SDS011;1368;49.484;11.112;2024-03-02T11:11:56;22.53;;;15.20;;
2720;SDS011;1368;49.484;11.112;2024-03-02T11:14:26;21.03;;;16.30;;
2720;SDS011;1368;49.484;11.112;2024-03-02T11:16:57;26.10;;;18.47;;
2720;SDS011;1368;49.484;11.112;2024-03-02T11:19:24;20.03;;;14.27;;
2720;SDS011;1368;49.484;11.112;2024-03-02T11:21:51;21.47;;;15.47;;
2720;SDS011;1368;49.484;11.112;2024-03-02T11:26:52;22.20;;;17.50;;
2720;SDS011;1368;49.484;11.112;2024-03-02T11:32:03;21.40;;;16.33;;
2720;SDS011;1368;49.484;11.112;2024-03-02T11:36:57;22.30;;;15.70;;
2720;SDS011;1368;49.484;11.112;2024-03-02T11:39:24;19.20;;;13.20;;
2720;SDS011;1368;49.484;11.112;2024-03-02T11:41:50;20.20;;;14.53;;
2720;SDS011;1368;49.484;11.112;2024-03-02T11:44:16;17.80;;;14.03;;
2720;SDS011;1368;49.484;11.112;2024-03-02T11:46:42;18.93;;;14.57;;
2720;SDS011;1368;49.484;11.112;2024-03-02T11:49:14;17.50;;;13.90;;
2720;SDS011;1368;49.484;11.112;2024-03-02T11:51:50;21.10;;;12.67;;
2720;SDS011;1368;49.484;11.112;2024-03-02T11:54:25;19.47;;;14.30;;
2720;SDS011;1368;49.484;11.112;2024-03-02T11:56:55;19.07;;;12.60;;
2720;SDS011;1368;49.484;11.112;2024-03-02T11:59:21;19.87;;;14.30;;
2720;SDS011;1368;49.484;11.112;2024-03-02T12:01:47;20.17;;;14.07;;
2720;SDS011;1368;49.484;11.112;2024-03-02T12:04:14;21.17;;;14.20;;
2720;SDS011;1368;49.484;11.112;2024-03-02T12:06:40;26.00;;;16.47;;
2720;SDS011;1368;49.484;11.112;2024-03-02T12:09:09;24.60;;;16.80;;
2720;SDS011;1368;49.484;11.112;2024-03-02T12:11:37;31.43;;;17.80;;
2720;SDS011;1368;49.484;11.112;2024-03-02T12:14:02;26.00;;;17.97;;
2720;SDS011;1368;49.484;11.112;2024-03-02T12:16:29;27.37;;;19.30;;
2720;SDS011;1368;49.484;11.112;2024-03-02T12:18:55;26.53;;;18.10;;
2720;SDS011;1368;49.484;11.112;2024-03-02T12:21:20;29.90;;;19.33;;
2720;SDS011;1368;49.484;11.112;2024-03-02T12:23:46;27.30;;;19.97;;
2720;SDS011;1368;49.484;11.112;2024-03-02T12:26:12;26.20;;;18.83;;
2720;SDS011;1368;49.484;11.112;2024-03-02T12:28:37;31.17;;;21.17;;
2720;SDS011;1368;49.484;11.112;2024-03-02T12:31:03;26.83;;;19.13;;
2720;SDS011;1368;49.484;11.112;2024-03-02T12:33:28;31.10;;;21.33;;
2720;SDS011;1368;49.484;11.112;2024-03-02T12:35:56;27.23;;;19.43;;
2720;SDS011;1368;49.484;11.112;2024-03-02T12:38:23;25.20;;;18.43;;
2720;SDS011;1368;49.484;11.112;2024-03-02T12:40:51;26.20;;;18.57;;
2720;SDS011;1368;49.484;11.112;2024-03-02T12:43:17;30.53;;;20.90;;
2720;SDS011;1368;49.484;11.112;2024-03-02T12:45:43;33.80;;;21.93;;
2720;SDS011;1368;49.484;11.112;2024-03-02T12:48:08;33.93;;;22.03;;
2720;SDS011;1368;49.484;11.112;2024-03-02T12:50:34;32.17;;;23.07;;
2720;SDS011;1368;49.484;11.112;2024-03-02T12:53:00;33.17;;;23.57;;
2720;SDS011;1368;49.484;11.112;2024-03-02T12:55:25;29.80;;;22.77;;
2720;SDS011;1368;49.484;11.112;2024-03-02T12:57:51;31.60;;;21.67;;
2720;SDS011;1368;49.484;11.112;2024-03-02T13:00:18;34.70;;;23.30;;
2720;SDS011;1368;49.484;11.112;2024-03-02T13:02:45;33.27;;;23.80;;
2720;SDS011;1368;49.484;11.112;2024-03-02T13:05:11;30.70;;;21.13;;
2720;SDS011;1368;49.484;11.112;2024-03-02T13:07:39;31.20;;;21.80;;
2720;SDS011;1368;49.484;11.112;2024-03-02T13:10:06;28.13;;;20.63;;
2720;SDS011;1368;49.484;11.112;2024-03-02T13:12:33;27.63;;;19.13;;
2720;SDS011;1368;49.484;11.112;2024-03-02T13:15:01;27.40;;;19.40;;
2720;SDS011;1368;49.484;11.112;2024-03-02T13:17:28;24.50;;;18.83;;
2720;SDS011;1368;49.484;11.112;2024-03-02T13:19:57;24.83;;;18.60;;
2720;SDS011;1368;49.484;11.112;2024-03-02T13:22:24;23.90;;;17.63;;
2720;SDS011;1368;49.484;11.112;2024-03-02T13:24:50;23.97;;;16.83;;
2720;SDS011;1368;49.484;11.112;2024-03-02T13:27:16;26.33;;;17.07;;
2720;SDS011;1368;49.484;11.112;2024-03-02T13:29:45;24.10;;;16.70;;
2720;SDS011;1368;49.484;11.112;2024-03-02T13:32:12;21.93;;;15.90;;
2720;SDS011;1368;49.484;11.112;2024-03-02T13:34:38;25.83;;;16.00;;
2720;SDS011;1368;49.484;11.112;2024-03-02T13:37:03;26.73;;;17.20;;
2720;SDS011;1368;49.484;11.112;2024-03-02T13:39:30;21.37;;;14.53;;
2720;SDS011;1368;49.484;11.112;2024-03-02T13:41:57;22.00;;;15.17;;
2720;SDS011;1368;49.484;11.112;2024-03-02T13:44:27;27.10;;;16.70;;
2720;SDS011;1368;49.484;11.112;2024-03-02T13:46:53;21.90;;;14.30;;
2720;SDS011;1368;49.484;11.112;2024-03-02T13:49:19;24.07;;;16.23;;
2720;SDS011;1368;49.484;11.112;2024-03-02T13:51:44;20.43;;;13.80;;
2720;SDS011;1368;49.484;11.112;2024-03-02T13:54:10;20.57;;;13.70;;
2720;SDS011;1368;49.484;11.112;2024-03-02T13:56:36;21.13;;;13.40;;
2720;SDS011;1368;49.484;11.112;2024-03-02T13:59:04;21.23;;;13.37;;
2720;SDS011;1368;49.484;11.112;2024-03-02T14:01:30;22.80;;;14.40;;
2720;SDS011;1368;49.484;11.112;2024-03-02T14:03:57;20.13;;;15.37;;
2720;SDS011;1368;49.484;11.112;2024-03-02T14:06:23;24.10;;;15.33;;
2720;SDS011;1368;49.484;11.112;2024-03-02T14:08:50;26.10;;;17.87;;
2720;SDS011;1368;49.484;11.112;2024-03-02T14:11:15;23.87;;;15.93;;
2720;SDS011;1368;49.484;11.112;2024-03-02T14:13:41;30.50;;;16.03;;
2720;SDS011;1368;49.484;11.112;2024-03-02T14:16:09;29.23;;;18.70;;
2720;SDS011;1368;49.484;11.112;2024-03-02T14:18:35;31.17;;;21.10;;
2720;SDS011;1368;49.484;11.112;2024-03-02T14:21:01;28.60;;;18.10;;
2720;SDS011;1368;49.484;11.112;2024-03-02T14:23:28;26.43;;;18.60;;
2720;SDS011;1368;49.484;11.112;2024-03-02T14:25:54;30.60;;;19.57;;
2720;SDS011;1368;49.484;11.112;2024-03-02T14:28:20;32.77;;;20.73;;
2720;SDS011;1368;49.484;11.112;2024-03-02T14:30:45;30.00;;;20.30;;
2720;SDS011;1368;49.484;11.112;2024-03-02T14:33:11;29.43;;;19.40;;
2720;SDS011;1368;49.484;11.112;2024-03-02T14:35:38;34.30;;;21.17;;
2720;SDS011;1368;49.484;11.112;2024-03-02T14:38:04;32.13;;;21.90;;
2720;SDS011;1368;49.484;11.112;2024-03-02T14:40:29;31.93;;;21.80;;